Time;durP1;ratioP1;P1;durP2;ratioP2;P2;SDS_P1;SDS_P2;PMS_P1;PMS_P2;Temp;Humidity;BMP_temperature;BMP_pressure;BME280_temperature;BME280_humidity;BME280_pressure;Samples;Min_cycle;Max_cycle;Signal;HPM_P1;HPM_P2
2024/01/30 00:00:54;;;;;;;;;;;;;;;;;;2077423;28;19921;-75
2024/01/30 00:02:15;;;;;;;;;;;;;;;;;;2074874;28;20380;-75
2024/01/30 00:03:36;;;;;;;;;;;;;;;;;;2078033;28;19963;-75
2024/01/30 00:04:56;;;;;;;;;;;;;;;;;;2084646;28;19935;-75
2024/01/30 00:06:17;;;;;;;;;;;;;;;;;;2086289;28;20328;-77
2024/01/30 00:07:38;;;;;;;;;;;;;;;;;;2078941;28;20305;-77
2024/01/30 00:08:58;;;;;;;;;;;;;;;;;;2068678;28;19914;-76
2024/01/30 00:10:19;;;;;;;;;;;;;;;;;;2076622;28;19985;-77
2024/01/30 00:11:40;;;;;;;;;;;;;;;;;;2074547;28;19925;-77
2024/01/30 00:13:00;;;;;;;;;;;;;;;;;;2077803;28;20274;-77
2024/01/30 00:14:21;;;;;;;;;;;;;;;;;;2075473;28;19921;-77
2024/01/30 00:15:42;;;;;;;;;;;;;;;;;;2076769;28;19936;-76
2024/01/30 00:17:03;;;;;;;;;;;;;;;;;;2071804;28;19921;-77
2024/01/30 00:18:23;;;;;;;;;;;;;;;;;;2083156;28;19913;-77
2024/01/30 00:19:44;;;;;;;;;;;;;;;;;;2087060;28;20312;-76
2024/01/30 00:21:07;;;;;;;;;;;;;;;;;;2087843;28;19928;-76
2024/01/30 00:22:30;;;;;;;;;;;;;;;;;;2079267;28;20403;-78
2024/01/30 00:23:51;;;;;;;;;;;;;;;;;;2079948;28;19909;-77
2024/01/30 00:25:11;;;;;;;;;;;;;;;;;;2080168;28;20411;-77
2024/01/30 00:26:32;;;;;;;;;;;;;;;;;;2084830;28;19978;-77
2024/01/30 00:27:53;;;;;;;;;;;;;;;;;;2087200;28;20018;-77
2024/01/30 00:29:19;;;;;;;;;;;;;;;;;;2073490;28;19909;-77
2024/01/30 00:30:39;;;;;;;;;;;;;;;;;;2079610;28;19909;-76
2024/01/30 00:32:00;;;;;;;;;;;;;;;;;;2079737;28;20240;-75
2024/01/30 00:33:21;;;;;;;;;;;;;;;;;;2076264;28;19913;-75
2024/01/30 00:34:42;;;;;;;;;;;;;;;;;;2071437;28;19974;-75
2024/01/30 00:36:03;;;;;;;;;;;;;;;;;;2078099;28;19943;-74
2024/01/30 00:37:23;;;;;;;;;;;;;;;;;;2079646;28;19913;-75
2024/01/30 00:38:44;;;;;;;;;;;;;;;;;;2079084;28;19924;-75
2024/01/30 00:40:05;;;;;;;;;;;;;;;;;;2085984;28;20284;-77
2024/01/30 00:41:26;;;;;;;;;;;;;;;;;;2078448;28;19944;-77
2024/01/30 00:42:47;;;;;;;;;;;;;;;;;;2074996;28;19997;-76
2024/01/30 00:44:08;;;;;;;;;;;;;;;;;;2079889;28;19921;-77
2024/01/30 00:45:28;;;;;;;;;;;;;;;;;;2079224;28;19960;-77
2024/01/30 00:46:49;;;;;;;;;;;;;;;;;;2076906;28;19920;-77
2024/01/30 00:48:10;;;;;;;;;;;;;;;;;;2081021;28;19910;-77
2024/01/30 00:49:31;;;;;;;;;;;;;;;;;;2088539;28;19913;-76
2024/01/30 00:50:51;;;;;;;;;;;;;;;;;;2082589;28;19913;-77
2024/01/30 00:52:12;;;;;;;;;;;;;;;;;;2078579;28;19971;-77
2024/01/30 00:53:33;;;;;;;;;;;;;;;;;;2080788;28;19913;-77
2024/01/30 00:54:53;;;;;;;;;;;;;;;;;;2081321;28;19928;-77
2024/01/30 00:56:18;;;;;;;;;;;;;;;;;;2084783;28;19920;-77
2024/01/30 00:57:39;;;;;;;;;;;;;;;;;;2088417;28;19924;-76
2024/01/30 00:58:59;;;;;;;;;;;;;;;;;;2078812;28;20393;-77
2024/01/30 01:00:20;;;;;;;;;;;;;;;;;;2082718;28;19936;-76
2024/01/30 01:01:41;;;;;;;;;;;;;;;;;;2080644;28;19927;-77
2024/01/30 01:03:02;;;;;;;;;;;;;;;;;;2083048;28;20364;-77
2024/01/30 01:04:23;;;;;;;;;;;;;;;;;;2080092;28;19913;-77
2024/01/30 01:05:43;;;;;;;;;;;;;;;;;;2076313;28;20305;-77
2024/01/30 01:07:04;;;;;;;;;;;;;;;;;;2079126;28;19932;-77
2024/01/30 01:08:25;;;;;;;;;;;;;;;;;;2077163;28;19922;-77
2024/01/30 01:09:46;;;;;;;;;;;;;;;;;;2075330;28;19964;-77
2024/01/30 01:11:06;;;;;;;;;;;;;;;;;;2077395;28;19917;-77
2024/01/30 01:12:27;;;;;;;;;;;;;;;;;;2083062;28;19921;-76
2024/01/30 01:13:48;;;;;;;;;;;;;;;;;;2083307;28;19923;-76
2024/01/30 01:15:09;;;;;;;;;;;;;;;;;;2080881;28;20249;-77
2024/01/30 01:16:30;;;;;;;;;;;;;;;;;;2085441;28;19978;-77
2024/01/30 01:17:51;;;;;;;;;;;;;;;;;;2077990;28;19914;-77
2024/01/30 01:19:11;;;;;;;;;;;;;;;;;;2084053;28;19951;-75
2024/01/30 01:20:32;;;;;;;;;;;;;;;;;;2087294;28;19913;-75
2024/01/30 01:21:53;;;;;;;;;;;;;;;;;;2079806;28;19971;-75
2024/01/30 01:23:14;;;;;;;;;;;;;;;;;;2085055;28;19929;-77
2024/01/30 01:24:34;;;;;;;;;;;;;;;;;;2077374;28;19917;-75
2024/01/30 01:25:55;;;;;;;;;;;;;;;;;;2076667;28;19919;-75
2024/01/30 01:27:16;;;;;;;;;;;;;;;;;;2076287;28;20004;-75
2024/01/30 01:28:37;;;;;;;;;;;;;;;;;;2079040;28;19914;-75
2024/01/30 01:29:57;;;;;;;;;;;;;;;;;;2076043;28;19914;-75
2024/01/30 01:31:18;;;;;;;;;;;;;;;;;;2085625;28;19986;-75
2024/01/30 01:32:44;;;;;;;;;;;;;;;;;;2076654;28;19925;-75
2024/01/30 01:34:05;;;;;;;;;;;;;;;;;;2086410;28;20304;-75
2024/01/30 01:35:26;;;;;;;;;;;;;;;;;;2078189;28;19909;-75
2024/01/30 01:36:47;;;;;;;;;;;;;;;;;;2084453;28;19909;-74
2024/01/30 01:38:07;;;;;;;;;;;;;;;;;;2078752;28;20361;-75
2024/01/30 01:39:28;;;;;;;;;;;;;;;;;;2074106;28;20238;-75
2024/01/30 01:40:49;;;;;;;;;;;;;;;;;;2067893;28;20344;-74
2024/01/30 01:42:09;;;;;;;;;;;;;;;;;;2067662;28;19964;-77
2024/01/30 01:43:30;;;;;;;;;;;;;;;;;;2077307;28;19924;-78
2024/01/30 01:44:51;;;;;;;;;;;;;;;;;;2074960;28;19909;-77
2024/01/30 01:46:11;;;;;;;;;;;;;;;;;;2075998;28;19916;-76
2024/01/30 01:47:32;;;;;;;;;;;;;;;;;;2083605;28;19909;-77
2024/01/30 01:48:53;;;;;;;;;;;;;;;;;;2071998;28;19917;-77
2024/01/30 01:50:14;;;;;;;;;;;;;;;;;;2069584;28;19910;-81
2024/01/30 01:51:34;;;;;;;;;;;;;;;;;;2071553;28;19968;-81
2024/01/30 01:52:55;;;;;;;;;;;;;;;;;;2077376;28;19921;-82
2024/01/30 01:54:16;;;;;;;;;;;;;;;;;;2076818;28;19921;-81
2024/01/30 01:55:38;;;;;;;;;;;;;;;;;;2075876;28;20450;-81
2024/01/30 01:56:59;;;;;;;;;;;;;;;;;;2080633;28;19913;-81
2024/01/30 01:58:20;;;;;;;;;;;;;;;;;;2078538;28;20284;-81
2024/01/30 01:59:40;;;;;;;;;;;;;;;;;;2084205;28;19913;-81
2024/01/30 02:01:01;;;;;;;;;;;;;;;;;;2081060;28;19913;-79
2024/01/30 02:02:22;;;;;;;;;;;;;;;;;;2077766;28;19921;-81
2024/01/30 02:03:42;;;;;;;;;;;;;;;;;;2085108;28;19916;-82
2024/01/30 02:05:03;;;;;;;;;;;;;;;;;;2078705;28;19936;-81
2024/01/30 02:06:24;;;;;;;;;;;;;;;;;;2078830;28;20433;-81
2024/01/30 02:07:45;;;;;;;;;;;;;;;;;;2074403;28;20164;-82
2024/01/30 02:09:05;;;;;;;;;;;;;;;;;;2071601;28;19921;-81
2024/01/30 02:10:26;;;;;;;;;;;;;;;;;;2085647;28;20034;-81
2024/01/30 02:11:47;;;;;;;;;;;;;;;;;;2084295;28;21894;-81
2024/01/30 02:13:08;;;;;;;;;;;;;;;;;;2075404;28;19909;-82
2024/01/30 02:14:28;;;;;;;;;;;;;;;;;;2078602;28;20389;-82
2024/01/30 02:15:50;;;;;;;;;;;;;;;;;;2085349;28;19922;-81
2024/01/30 02:17:10;;;;;;;;;;;;;;;;;;2078302;28;19921;-81
2024/01/30 02:18:31;;;;;;;;;;;;;;;;;;2079238;28;19916;-81
2024/01/30 02:19:52;;;;;;;;;;;;;;;;;;2083318;28;20006;-82
2024/01/30 02:21:12;;;;;;;;;;;;;;;;;;2071855;28;19913;-81
2024/01/30 02:22:33;;;;;;;;;;;;;;;;;;2077142;28;19916;-79
2024/01/30 02:23:54;;;;;;;;;;;;;;;;;;2083818;28;20369;-79
2024/01/30 02:25:15;;;;;;;;;;;;;;;;;;2089291;28;19943;-79
2024/01/30 02:26:35;;;;;;;;;;;;;;;;;;2079999;28;19913;-79
2024/01/30 02:27:56;;;;;;;;;;;;;;;;;;2085793;28;19912;-79
2024/01/30 02:29:17;;;;;;;;;;;;;;;;;;2089250;28;19935;-79
2024/01/30 02:30:38;;;;;;;;;;;;;;;;;;2088823;28;19908;-79
2024/01/30 02:31:58;;;;;;;;;;;;;;;;;;2091688;28;19929;-79
2024/01/30 02:33:19;;;;;;;;;;;;;;;;;;2079948;28;19917;-80
2024/01/30 02:34:40;;;;;;;;;;;;;;;;;;2072143;28;19910;-81
2024/01/30 02:36:00;;;;;;;;;;;;;;;;;;2076205;28;19913;-81
2024/01/30 02:37:21;;;;;;;;;;;;;;;;;;2086658;28;19912;-81
2024/01/30 02:38:42;;;;;;;;;;;;;;;;;;2079948;28;19913;-81
2024/01/30 02:40:02;;;;;;;;;;;;;;;;;;2086438;28;20380;-81
2024/01/30 02:41:23;;;;;;;;;;;;;;;;;;2088993;28;19917;-82
2024/01/30 02:42:44;;;;;;;;;;;;;;;;;;2089749;28;20007;-82
2024/01/30 02:44:05;;;;;;;;;;;;;;;;;;2077783;28;19922;-79
2024/01/30 02:45:25;;;;;;;;;;;;;;;;;;2072754;28;20004;-81
2024/01/30 02:46:46;;;;;;;;;;;;;;;;;;2087552;28;19913;-81
2024/01/30 02:48:07;;;;;;;;;;;;;;;;;;2083550;28;19917;-80
2024/01/30 02:49:27;;;;;;;;;;;;;;;;;;2086192;28;20344;-81
2024/01/30 02:50:48;;;;;;;;;;;;;;;;;;2077207;28;19917;-82
2024/01/30 02:52:09;;;;;;;;;;;;;;;;;;2086143;28;20023;-81
2024/01/30 02:53:29;;;;;;;;;;;;;;;;;;2082161;28;20238;-80
2024/01/30 02:54:50;;;;;;;;;;;;;;;;;;2071142;28;19929;-81
2024/01/30 02:56:13;;;;;;;;;;;;;;;;;;2070688;28;19914;-81
2024/01/30 02:57:34;;;;;;;;;;;;;;;;;;2077835;28;19928;-82
2024/01/30 02:58:54;;;;;;;;;;;;;;;;;;2081218;28;19913;-80
2024/01/30 03:00:15;;;;;;;;;;;;;;;;;;2072273;28;19944;-77
2024/01/30 03:01:36;;;;;;;;;;;;;;;;;;2069398;28;19921;-76
2024/01/30 03:02:56;;;;;;;;;;;;;;;;;;2073563;28;19913;-77
2024/01/30 03:04:17;;;;;;;;;;;;;;;;;;2080949;28;19916;-77
2024/01/30 03:05:38;;;;;;;;;;;;;;;;;;2080544;28;20008;-77
2024/01/30 03:06:58;;;;;;;;;;;;;;;;;;2072762;28;19922;-77
2024/01/30 03:08:19;;;;;;;;;;;;;;;;;;2067014;28;19913;-77
2024/01/30 03:09:40;;;;;;;;;;;;;;;;;;2077719;28;20511;-77
2024/01/30 03:11:01;;;;;;;;;;;;;;;;;;2068833;28;19997;-76
2024/01/30 03:12:22;;;;;;;;;;;;;;;;;;2071544;28;20361;-77
2024/01/30 03:13:42;;;;;;;;;;;;;;;;;;2068477;28;19929;-77
2024/01/30 03:15:03;;;;;;;;;;;;;;;;;;2077433;28;19917;-77
2024/01/30 03:16:24;;;;;;;;;;;;;;;;;;2079459;28;19921;-76
2024/01/30 03:17:44;;;;;;;;;;;;;;;;;;2080243;28;19913;-76
2024/01/30 03:19:07;;;;;;;;;;;;;;;;;;2078016;28;19921;-76
2024/01/30 03:20:28;;;;;;;;;;;;;;;;;;2072283;28;19913;-78
2024/01/30 03:21:48;;;;;;;;;;;;;;;;;;2071397;28;20001;-77
2024/01/30 03:23:09;;;;;;;;;;;;;;;;;;2073490;28;19918;-77
2024/01/30 03:24:30;;;;;;;;;;;;;;;;;;2070764;28;20277;-77
2024/01/30 03:25:51;;;;;;;;;;;;;;;;;;2075980;28;20357;-77
2024/01/30 03:27:11;;;;;;;;;;;;;;;;;;2077800;28;19960;-77
2024/01/30 03:28:32;;;;;;;;;;;;;;;;;;2071673;28;19948;-77
2024/01/30 03:29:53;;;;;;;;;;;;;;;;;;2069639;28;20366;-76
2024/01/30 03:31:13;;;;;;;;;;;;;;;;;;2077176;28;19913;-77
2024/01/30 03:32:34;;;;;;;;;;;;;;;;;;2079888;28;19925;-77
2024/01/30 03:33:55;;;;;;;;;;;;;;;;;;2079539;28;19913;-77
2024/01/30 03:35:16;;;;;;;;;;;;;;;;;;2071153;28;19936;-75
2024/01/30 03:36:36;;;;;;;;;;;;;;;;;;2070684;28;19937;-75
2024/01/30 03:37:57;;;;;;;;;;;;;;;;;;2068865;28;19917;-76
2024/01/30 03:39:18;;;;;;;;;;;;;;;;;;2068951;28;19914;-75
2024/01/30 03:40:38;;;;;;;;;;;;;;;;;;2078041;28;19913;-75
2024/01/30 03:41:59;;;;;;;;;;;;;;;;;;2079459;28;20145;-74
2024/01/30 03:43:20;;;;;;;;;;;;;;;;;;2071597;28;19921;-75
2024/01/30 03:44:40;;;;;;;;;;;;;;;;;;2071869;28;19914;-77
2024/01/30 03:46:01;;;;;;;;;;;;;;;;;;2076728;28;19913;-77
2024/01/30 03:47:22;;;;;;;;;;;;;;;;;;2080871;28;20431;-77
2024/01/30 03:48:42;;;;;;;;;;;;;;;;;;2079578;28;19913;-77
2024/01/30 03:50:04;;;;;;;;;;;;;;;;;;2071761;28;19964;-76
2024/01/30 03:51:25;;;;;;;;;;;;;;;;;;2077359;28;20375;-77
2024/01/30 03:52:46;;;;;;;;;;;;;;;;;;2069996;28;19922;-77
2024/01/30 03:54:07;;;;;;;;;;;;;;;;;;2082298;28;20291;-76
2024/01/30 03:55:27;;;;;;;;;;;;;;;;;;2088885;28;19917;-75
2024/01/30 03:56:48;;;;;;;;;;;;;;;;;;2087814;28;19909;-76
2024/01/30 03:58:09;;;;;;;;;;;;;;;;;;2078936;28;19920;-75
2024/01/30 03:59:29;;;;;;;;;;;;;;;;;;2086386;28;20272;-76
2024/01/30 04:00:50;;;;;;;;;;;;;;;;;;2074856;28;19910;-76
2024/01/30 04:02:11;;;;;;;;;;;;;;;;;;2076435;28;19925;-76
2024/01/30 04:03:32;;;;;;;;;;;;;;;;;;2076820;28;19971;-76
2024/01/30 04:04:53;;;;;;;;;;;;;;;;;;2071188;28;19916;-76
2024/01/30 04:06:13;;;;;;;;;;;;;;;;;;2078260;28;19909;-76
2024/01/30 04:07:34;;;;;;;;;;;;;;;;;;2073895;28;19913;-75
2024/01/30 04:08:55;;;;;;;;;;;;;;;;;;2076599;28;19916;-75
2024/01/30 04:10:15;;;;;;;;;;;;;;;;;;2079803;28;20258;-76
2024/01/30 04:11:36;;;;;;;;;;;;;;;;;;2072281;28;19909;-76
2024/01/30 04:12:57;;;;;;;;;;;;;;;;;;2084836;28;20426;-75
2024/01/30 04:14:17;;;;;;;;;;;;;;;;;;2079499;28;19989;-76
2024/01/30 04:15:38;;;;;;;;;;;;;;;;;;2079424;28;19910;-76
2024/01/30 04:16:59;;;;;;;;;;;;;;;;;;2085502;28;19917;-76
2024/01/30 04:18:19;;;;;;;;;;;;;;;;;;2088230;28;19913;-76
2024/01/30 04:19:40;;;;;;;;;;;;;;;;;;2077492;28;19909;-76
2024/01/30 04:21:01;;;;;;;;;;;;;;;;;;2081048;28;20039;-76
2024/01/30 04:22:22;;;;;;;;;;;;;;;;;;2078529;28;19921;-76
2024/01/30 04:23:42;;;;;;;;;;;;;;;;;;2085399;28;19909;-76
2024/01/30 04:25:03;;;;;;;;;;;;;;;;;;2078733;28;19972;-76
2024/01/30 04:26:24;;;;;;;;;;;;;;;;;;2085959;28;19913;-76
2024/01/30 04:27:44;;;;;;;;;;;;;;;;;;2088890;28;19913;-76
2024/01/30 04:29:05;;;;;;;;;;;;;;;;;;2071401;28;20318;-76
2024/01/30 04:30:26;;;;;;;;;;;;;;;;;;2071021;28;19964;-76
2024/01/30 04:31:46;;;;;;;;;;;;;;;;;;2069007;28;19963;-77
2024/01/30 04:33:07;;;;;;;;;;;;;;;;;;2077175;28;19917;-76
2024/01/30 04:34:28;;;;;;;;;;;;;;;;;;2079705;28;19909;-76
2024/01/30 04:35:48;;;;;;;;;;;;;;;;;;2078470;28;20392;-76
2024/01/30 04:37:09;;;;;;;;;;;;;;;;;;2083445;28;19912;-77
2024/01/30 04:38:30;;;;;;;;;;;;;;;;;;2087440;28;20521;-77
2024/01/30 04:39:51;;;;;;;;;;;;;;;;;;2087790;28;19916;-76
2024/01/30 04:41:11;;;;;;;;;;;;;;;;;;2078743;28;19909;-76
2024/01/30 04:42:32;;;;;;;;;;;;;;;;;;2078585;28;19925;-76
2024/01/30 04:43:53;;;;;;;;;;;;;;;;;;2085443;28;20217;-76
2024/01/30 04:45:13;;;;;;;;;;;;;;;;;;2079515;28;19988;-76
2024/01/30 04:46:34;;;;;;;;;;;;;;;;;;2085381;28;19909;-76
2024/01/30 04:47:55;;;;;;;;;;;;;;;;;;2079205;28;19909;-76
2024/01/30 04:49:15;;;;;;;;;;;;;;;;;;2079495;28;19909;-76
2024/01/30 04:50:36;;;;;;;;;;;;;;;;;;2077078;28;19913;-77
2024/01/30 04:51:57;;;;;;;;;;;;;;;;;;2074710;28;19913;-76
2024/01/30 04:53:19;;;;;;;;;;;;;;;;;;2069084;28;19921;-76
2024/01/30 04:54:39;;;;;;;;;;;;;;;;;;2073327;28;19932;-77
2024/01/30 04:56:00;;;;;;;;;;;;;;;;;;2075772;28;19917;-76
2024/01/30 04:57:23;;;;;;;;;;;;;;;;;;2076101;28;19913;-76
2024/01/30 04:58:43;;;;;;;;;;;;;;;;;;2085844;28;19982;-76
2024/01/30 05:00:05;;;;;;;;;;;;;;;;;;2080562;28;19916;-76
2024/01/30 05:01:25;;;;;;;;;;;;;;;;;;2077104;28;19936;-76
2024/01/30 05:02:46;;;;;;;;;;;;;;;;;;2074329;28;19921;-77
2024/01/30 05:04:07;;;;;;;;;;;;;;;;;;2085323;28;19936;-77
2024/01/30 05:05:27;;;;;;;;;;;;;;;;;;2085866;28;19936;-76
2024/01/30 05:06:48;;;;;;;;;;;;;;;;;;2087552;28;19913;-77
2024/01/30 05:08:09;;;;;;;;;;;;;;;;;;2078638;28;19944;-77
2024/01/30 05:09:30;;;;;;;;;;;;;;;;;;2085093;28;19916;-76
2024/01/30 05:10:50;;;;;;;;;;;;;;;;;;2088508;28;19909;-76
2024/01/30 05:12:11;;;;;;;;;;;;;;;;;;2080135;28;20356;-77
2024/01/30 05:13:32;;;;;;;;;;;;;;;;;;2075230;28;19909;-76
2024/01/30 05:14:53;;;;;;;;;;;;;;;;;;2074897;28;20032;-77
2024/01/30 05:16:13;;;;;;;;;;;;;;;;;;2078336;28;19909;-76
2024/01/30 05:17:34;;;;;;;;;;;;;;;;;;2072679;28;19921;-76
2024/01/30 05:18:55;;;;;;;;;;;;;;;;;;2076908;28;19931;-76
2024/01/30 05:20:15;;;;;;;;;;;;;;;;;;2079379;28;19909;-77
2024/01/30 05:21:36;;;;;;;;;;;;;;;;;;2079020;28;20015;-79
2024/01/30 05:22:57;;;;;;;;;;;;;;;;;;2084210;28;20484;-81
2024/01/30 05:24:18;;;;;;;;;;;;;;;;;;2071618;28;19913;-80
2024/01/30 05:25:39;;;;;;;;;;;;;;;;;;2078068;28;20348;-81
2024/01/30 05:26:59;;;;;;;;;;;;;;;;;;2070910;28;19918;-81
2024/01/30 05:28:20;;;;;;;;;;;;;;;;;;2071434;28;19945;-81
2024/01/30 05:29:41;;;;;;;;;;;;;;;;;;2077487;28;19921;-79
2024/01/30 05:31:01;;;;;;;;;;;;;;;;;;2083269;28;20007;-81
2024/01/30 05:32:22;;;;;;;;;;;;;;;;;;2078408;28;19916;-81
2024/01/30 05:33:43;;;;;;;;;;;;;;;;;;2085297;28;20284;-82
2024/01/30 05:35:03;;;;;;;;;;;;;;;;;;2088519;28;19952;-82
2024/01/30 05:36:24;;;;;;;;;;;;;;;;;;2083245;28;20026;-82
2024/01/30 05:37:45;;;;;;;;;;;;;;;;;;2087612;28;19931;-82
2024/01/30 05:39:05;;;;;;;;;;;;;;;;;;2078975;28;20550;-81
2024/01/30 05:40:27;;;;;;;;;;;;;;;;;;2075889;28;19909;-81
2024/01/30 05:41:48;;;;;;;;;;;;;;;;;;2076813;28;19909;-81
2024/01/30 05:43:08;;;;;;;;;;;;;;;;;;2085033;28;19916;-81
2024/01/30 05:44:29;;;;;;;;;;;;;;;;;;2078609;28;19991;-79
2024/01/30 05:45:50;;;;;;;;;;;;;;;;;;2080363;28;19917;-81
2024/01/30 05:47:10;;;;;;;;;;;;;;;;;;2078519;28;19917;-81
2024/01/30 05:48:31;;;;;;;;;;;;;;;;;;2077208;28;19920;-81
2024/01/30 05:49:52;;;;;;;;;;;;;;;;;;2070213;28;20290;-82
2024/01/30 05:51:13;;;;;;;;;;;;;;;;;;2084125;28;19917;-82
2024/01/30 05:52:33;;;;;;;;;;;;;;;;;;2088510;28;20272;-82
2024/01/30 05:53:54;;;;;;;;;;;;;;;;;;2093620;28;19920;-80
2024/01/30 05:55:15;;;;;;;;;;;;;;;;;;2078168;28;19917;-82
2024/01/30 05:56:35;;;;;;;;;;;;;;;;;;2073010;28;19910;-81
2024/01/30 05:57:56;;;;;;;;;;;;;;;;;;2071265;28;19976;-81
2024/01/30 05:59:17;;;;;;;;;;;;;;;;;;2078659;28;19909;-81
2024/01/30 06:00:37;;;;;;;;;;;;;;;;;;2075520;28;19913;-80
2024/01/30 06:01:58;;;;;;;;;;;;;;;;;;2080380;28;20414;-81
2024/01/30 06:03:19;;;;;;;;;;;;;;;;;;2079116;28;19917;-80
2024/01/30 06:04:39;;;;;;;;;;;;;;;;;;2080734;28;19963;-81
2024/01/30 06:06:00;;;;;;;;;;;;;;;;;;2087050;28;19935;-81
2024/01/30 06:07:24;;;;;;;;;;;;;;;;;;2081815;28;19909;-81
2024/01/30 06:08:44;;;;;;;;;;;;;;;;;;2079615;28;19932;-81
2024/01/30 06:10:05;;;;;;;;;;;;;;;;;;2081151;28;19968;-81
2024/01/30 06:11:26;;;;;;;;;;;;;;;;;;2081530;28;19909;-81
2024/01/30 06:12:48;;;;;;;;;;;;;;;;;;2072576;28;20250;-81
2024/01/30 06:14:08;;;;;;;;;;;;;;;;;;2086549;28;20265;-81
2024/01/30 06:15:29;;;;;;;;;;;;;;;;;;2086162;28;19913;-80
2024/01/30 06:16:50;;;;;;;;;;;;;;;;;;2077291;28;20233;-83
2024/01/30 06:18:11;;;;;;;;;;;;;;;;;;2086372;28;19912;-86
2024/01/30 06:19:31;;;;;;;;;;;;;;;;;;2082750;28;19913;-85
2024/01/30 06:20:52;;;;;;;;;;;;;;;;;;2074811;28;19917;-86
2024/01/30 06:22:13;;;;;;;;;;;;;;;;;;2083657;28;19917;-86
2024/01/30 06:23:34;;;;;;;;;;;;;;;;;;2082017;28;19929;-86
2024/01/30 06:24:54;;;;;;;;;;;;;;;;;;2088030;28;20233;-86
2024/01/30 06:26:15;;;;;;;;;;;;;;;;;;2090236;28;19913;-84
2024/01/30 06:27:36;;;;;;;;;;;;;;;;;;2082109;28;20003;-85
2024/01/30 06:28:56;;;;;;;;;;;;;;;;;;2078615;28;19917;-84
2024/01/30 06:30:17;;;;;;;;;;;;;;;;;;2081372;28;19913;-83
2024/01/30 06:31:38;;;;;;;;;;;;;;;;;;2086959;28;19939;-85
2024/01/30 06:32:58;;;;;;;;;;;;;;;;;;2088087;28;19916;-79
2024/01/30 06:34:20;;;;;;;;;;;;;;;;;;2079494;28;19913;-78
2024/01/30 06:35:40;;;;;;;;;;;;;;;;;;2075649;28;19914;-79
2024/01/30 06:37:01;;;;;;;;;;;;;;;;;;2076015;28;20316;-78
2024/01/30 06:38:22;;;;;;;;;;;;;;;;;;2078296;28;19999;-78
2024/01/30 06:39:42;;;;;;;;;;;;;;;;;;2077144;28;19976;-78
2024/01/30 06:41:03;;;;;;;;;;;;;;;;;;2075893;28;20439;-78
2024/01/30 06:42:24;;;;;;;;;;;;;;;;;;2086004;28;19926;-78
2024/01/30 06:43:45;;;;;;;;;;;;;;;;;;2077508;28;19975;-78
2024/01/30 06:45:06;;;;;;;;;;;;;;;;;;2087668;28;19912;-78
2024/01/30 06:46:27;;;;;;;;;;;;;;;;;;2090235;28;19931;-78
2024/01/30 06:47:48;;;;;;;;;;;;;;;;;;2078937;28;20422;-78
2024/01/30 06:49:08;;;;;;;;;;;;;;;;;;2087589;28;20352;-78
2024/01/30 06:50:29;;;;;;;;;;;;;;;;;;2081063;28;19917;-78
2024/01/30 06:51:50;;;;;;;;;;;;;;;;;;2087061;28;19924;-78
2024/01/30 06:53:10;;;;;;;;;;;;;;;;;;2088572;28;20320;-78
2024/01/30 06:54:32;;;;;;;;;;;;;;;;;;2081015;28;19922;-78
2024/01/30 06:55:53;;;;;;;;;;;;;;;;;;2073449;28;19913;-78
2024/01/30 06:57:14;;;;;;;;;;;;;;;;;;2073589;28;20406;-78
2024/01/30 06:58:34;;;;;;;;;;;;;;;;;;2085060;28;19924;-78
2024/01/30 06:59:55;;;;;;;;;;;;;;;;;;2080599;28;19963;-78
2024/01/30 07:01:16;;;;;;;;;;;;;;;;;;2077177;28;19913;-79
2024/01/30 07:02:37;;;;;;;;;;;;;;;;;;2074808;28;19963;-77
2024/01/30 07:03:57;;;;;;;;;;;;;;;;;;2076371;28;19921;-78
2024/01/30 07:05:18;;;;;;;;;;;;;;;;;;2069781;28;19975;-79
2024/01/30 07:06:39;;;;;;;;;;;;;;;;;;2073278;28;19910;-78
2024/01/30 07:07:59;;;;;;;;;;;;;;;;;;2075801;28;20490;-79
2024/01/30 07:09:21;;;;;;;;;;;;;;;;;;2077926;28;20013;-78
2024/01/30 07:10:41;;;;;;;;;;;;;;;;;;2077452;28;19909;-78
2024/01/30 07:12:02;;;;;;;;;;;;;;;;;;2077716;28;20272;-78
2024/01/30 07:13:23;;;;;;;;;;;;;;;;;;2086758;28;19913;-78
2024/01/30 07:14:43;;;;;;;;;;;;;;;;;;2079058;28;19913;-78
2024/01/30 07:16:04;;;;;;;;;;;;;;;;;;2083592;28;21011;-78
2024/01/30 07:17:25;;;;;;;;;;;;;;;;;;2080775;28;19909;-78
2024/01/30 07:18:45;;;;;;;;;;;;;;;;;;2088275;28;19913;-77
2024/01/30 07:20:07;;;;;;;;;;;;;;;;;;2084142;28;20058;-77
2024/01/30 07:21:28;;;;;;;;;;;;;;;;;;2078735;28;19971;-77
2024/01/30 07:22:48;;;;;;;;;;;;;;;;;;2077773;28;19937;-77
2024/01/30 07:24:09;;;;;;;;;;;;;;;;;;2080476;28;20388;-76
2024/01/30 07:25:30;;;;;;;;;;;;;;;;;;2082091;28;19923;-76
2024/01/30 07:26:51;;;;;;;;;;;;;;;;;;2080978;28;20447;-77
2024/01/30 07:28:16;;;;;;;;;;;;;;;;;;2079225;28;19910;-77
2024/01/30 07:29:37;;;;;;;;;;;;;;;;;;2072501;28;19921;-77
2024/01/30 07:30:57;;;;;;;;;;;;;;;;;;2078345;28;20332;-77
2024/01/30 07:32:18;;;;;;;;;;;;;;;;;;2079796;28;19943;-77
2024/01/30 07:33:39;;;;;;;;;;;;;;;;;;2084167;28;19909;-78
2024/01/30 07:35:00;;;;;;;;;;;;;;;;;;2079696;28;19918;-77
2024/01/30 07:36:20;;;;;;;;;;;;;;;;;;2085793;28;19920;-77
2024/01/30 07:37:41;;;;;;;;;;;;;;;;;;2097713;28;19964;-77
2024/01/30 07:39:02;;;;;;;;;;;;;;;;;;2083428;28;19935;-77
2024/01/30 07:40:24;;;;;;;;;;;;;;;;;;2079777;28;19943;-77
2024/01/30 07:41:45;;;;;;;;;;;;;;;;;;2078696;28;19909;-77
2024/01/30 07:43:05;;;;;;;;;;;;;;;;;;2077609;28;19920;-80
2024/01/30 07:44:26;;;;;;;;;;;;;;;;;;2071514;28;19925;-80
2024/01/30 07:45:47;;;;;;;;;;;;;;;;;;2078508;28;19920;-81
2024/01/30 07:47:08;;;;;;;;;;;;;;;;;;2081054;28;19992;-80
2024/01/30 07:48:29;;;;;;;;;;;;;;;;;;2077069;28;19909;-80
2024/01/30 07:49:51;;;;;;;;;;;;;;;;;;2078156;28;19917;-80
2024/01/30 07:51:11;;;;;;;;;;;;;;;;;;2080061;28;19916;-81
2024/01/30 07:52:32;;;;;;;;;;;;;;;;;;2078720;28;19936;-81
2024/01/30 07:53:53;;;;;;;;;;;;;;;;;;2071763;28;20370;-80
2024/01/30 07:55:13;;;;;;;;;;;;;;;;;;2078897;28;19936;-81
2024/01/30 07:56:34;;;;;;;;;;;;;;;;;;2071670;28;19909;-80
2024/01/30 07:57:55;;;;;;;;;;;;;;;;;;2074876;28;20242;-81
2024/01/30 07:59:16;;;;;;;;;;;;;;;;;;2081594;28;19975;-80
2024/01/30 08:00:37;;;;;;;;;;;;;;;;;;2088144;28;19908;-81
2024/01/30 08:02:03;;;;;;;;;;;;;;;;;;2083499;28;19909;-81
2024/01/30 08:03:24;;;;;;;;;;;;;;;;;;2081870;28;20289;-81
2024/01/30 08:04:48;;;;;;;;;;;;;;;;;;2072107;28;19910;-80
2024/01/30 08:06:09;;;;;;;;;;;;;;;;;;2073571;28;19968;-80
2024/01/30 08:07:30;;;;;;;;;;;;;;;;;;2079258;28;19909;-80
2024/01/30 08:08:53;;;;;;;;;;;;;;;;;;2080806;28;19920;-80
2024/01/30 08:10:13;;;;;;;;;;;;;;;;;;2081192;28;19913;-80
2024/01/30 08:11:34;;;;;;;;;;;;;;;;;;2078462;28;19916;-80
2024/01/30 08:12:55;;;;;;;;;;;;;;;;;;2079549;28;19917;-80
2024/01/30 08:14:15;;;;;;;;;;;;;;;;;;2078206;28;19944;-80
2024/01/30 08:15:36;;;;;;;;;;;;;;;;;;2084798;28;20335;-81
2024/01/30 08:16:57;;;;;;;;;;;;;;;;;;2089572;28;19971;-81
2024/01/30 08:18:18;;;;;;;;;;;;;;;;;;2080440;28;19936;-80
2024/01/30 08:19:38;;;;;;;;;;;;;;;;;;2071743;28;19910;-80
2024/01/30 08:20:59;;;;;;;;;;;;;;;;;;2070208;28;20293;-81
2024/01/30 08:22:20;;;;;;;;;;;;;;;;;;2078444;28;19940;-81
2024/01/30 08:23:41;;;;;;;;;;;;;;;;;;2080225;28;19929;-81
2024/01/30 08:25:01;;;;;;;;;;;;;;;;;;2080168;28;20361;-80
2024/01/30 08:26:22;;;;;;;;;;;;;;;;;;2080723;28;19944;-80
2024/01/30 08:27:43;;;;;;;;;;;;;;;;;;2079241;28;19909;-80
2024/01/30 08:29:04;;;;;;;;;;;;;;;;;;2072099;28;19909;-80
2024/01/30 08:30:24;;;;;;;;;;;;;;;;;;2072276;28;19909;-80
2024/01/30 08:31:46;;;;;;;;;;;;;;;;;;2071160;28;20385;-80
2024/01/30 08:33:07;;;;;;;;;;;;;;;;;;2077928;28;19909;-80
2024/01/30 08:34:27;;;;;;;;;;;;;;;;;;2079687;28;19924;-80
2024/01/30 08:35:48;;;;;;;;;;;;;;;;;;2072160;28;19909;-80
2024/01/30 08:37:09;;;;;;;;;;;;;;;;;;2070615;28;19917;-81
2024/01/30 08:38:29;;;;;;;;;;;;;;;;;;2070349;28;19953;-80
2024/01/30 08:39:50;;;;;;;;;;;;;;;;;;2068657;28;19914;-81
2024/01/30 08:41:11;;;;;;;;;;;;;;;;;;2076751;28;19967;-81
2024/01/30 08:42:33;;;;;;;;;;;;;;;;;;2071552;28;19910;-81
2024/01/30 08:43:54;;;;;;;;;;;;;;;;;;2072647;28;20053;-80
2024/01/30 08:45:14;;;;;;;;;;;;;;;;;;2076639;28;19909;-80
2024/01/30 08:46:35;;;;;;;;;;;;;;;;;;2080880;28;19917;-80
2024/01/30 08:47:56;;;;;;;;;;;;;;;;;;2076001;28;19932;-81
2024/01/30 08:49:17;;;;;;;;;;;;;;;;;;2070248;28;19917;-81
2024/01/30 08:50:38;;;;;;;;;;;;;;;;;;2077646;28;20391;-80
2024/01/30 08:51:58;;;;;;;;;;;;;;;;;;2073149;28;20336;-81
2024/01/30 08:53:19;;;;;;;;;;;;;;;;;;2076546;28;19910;-82
2024/01/30 08:54:40;;;;;;;;;;;;;;;;;;2079070;28;19925;-83
2024/01/30 08:56:00;;;;;;;;;;;;;;;;;;2080805;28;20396;-83
2024/01/30 08:57:21;;;;;;;;;;;;;;;;;;2081830;28;20253;-83
2024/01/30 08:58:42;;;;;;;;;;;;;;;;;;2083020;28;19916;-83
2024/01/30 09:00:06;;;;;;;;;;;;;;;;;;2086405;28;19909;-83
2024/01/30 09:01:27;;;;;;;;;;;;;;;;;;2072054;28;19909;-83
2024/01/30 09:02:48;;;;;;;;;;;;;;;;;;2071279;28;19921;-83
2024/01/30 09:04:09;;;;;;;;;;;;;;;;;;2068893;28;19917;-83
2024/01/30 09:05:29;;;;;;;;;;;;;;;;;;2072758;28;19917;-83
2024/01/30 09:06:50;;;;;;;;;;;;;;;;;;2079537;28;20327;-82
2024/01/30 09:08:11;;;;;;;;;;;;;;;;;;2080711;28;19921;-83
2024/01/30 09:09:31;;;;;;;;;;;;;;;;;;2081160;28;19909;-84
2024/01/30 09:10:52;;;;;;;;;;;;;;;;;;2086846;28;19909;-83
2024/01/30 09:12:14;;;;;;;;;;;;;;;;;;2088651;28;19909;-84